Time;durP1;ratioP1;P1;durP2;ratioP2;P2;SDS_P1;SDS_P2;PMS_P1;PMS_P2;Temp;Humidity;BMP_temperature;BMP_pressure;BME280_temperature;BME280_humidity;BME280_pressure;Samples;Min_cycle;Max_cycle;Signal;HPM_P1;HPM_P2
2020/12/05 00:00:22;;;;;;;5.95;1.40;;;;;;;16.46;42.70;98626.69;4993456;28;20030;-83
2020/12/05 00:02:49;;;;;;;4.90;1.80;;;;;;;16.78;41.86;98617.47;4993398;28;20057;-83
2020/12/05 00:05:15;;;;;;;7.32;1.67;;;;;;;16.77;41.74;98615.88;4993392;28;20369;-86
2020/12/05 00:07:41;;;;;;;5.40;1.50;;;;;;;16.31;43.09;98620.47;4993617;28;20031;-83
2020/12/05 00:10:07;;;;;;;7.82;1.63;;;;;;;15.63;44.69;98628.25;4993510;28;20416;-82
2020/12/05 00:12:32;;;;;;;4.85;1.55;;;;;;;16.49;42.82;98636.94;4993456;28;20034;-83
2020/12/05 00:14:58;;;;;;;6.40;1.95;;;;;;;16.49;42.92;98630.63;4993597;28;20030;-83
2020/12/05 00:17:23;;;;;;;3.58;1.52;;;;;;;16.48;42.91;98651.91;4992253;28;20034;-83
2020/12/05 00:19:49;;;;;;;6.47;1.90;;;;;;;16.46;43.18;98653.47;4993103;28;20061;-83
2020/12/05 00:22:15;;;;;;;10.50;1.65;;;;;;;15.72;45.00;98653.41;4993201;28;20038;-83
2020/12/05 00:24:40;;;;;;;5.40;2.22;;;;;;;16.05;44.10;98652.09;4992440;28;20038;-83
2020/12/05 00:27:06;;;;;;;5.07;1.98;;;;;;;15.91;44.38;98667.91;4992952;28;20042;-83
2020/12/05 00:29:31;;;;;;;5.93;1.38;;;;;;;16.21;43.99;98670.13;4993096;28;20038;-83
2020/12/05 00:31:57;;;;;;;6.22;2.00;;;;;;;15.41;45.50;98659.72;4993050;28;20041;-83
2020/12/05 00:34:22;;;;;;;5.53;1.50;;;;;;;15.37;45.36;98658.94;4993008;28;20038;-82
2020/12/05 00:36:52;;;;;;;5.32;1.55;;;;;;;15.78;44.67;98678.53;4992795;28;20092;-82
2020/12/05 00:39:17;;;;;;;4.68;1.48;;;;;;;15.19;46.09;98684.53;4993075;28;20089;-83
2020/12/05 00:41:43;;;;;;;4.88;1.67;;;;;;;15.64;44.92;98676.63;4993023;28;20026;-83
2020/12/05 00:44:08;;;;;;;5.78;1.70;;;;;;;15.87;44.00;98667.91;4994721;28;20030;-83
2020/12/05 00:46:34;;;;;;;5.95;1.83;;;;;;;15.82;44.15;98682.09;4996761;28;20037;-82
2020/12/05 00:48:59;;;;;;;5.80;1.75;;;;;;;15.68;44.45;98682.13;4996307;28;20049;-83
2020/12/05 00:51:25;;;;;;;5.18;1.48;;;;;;;15.75;44.18;98688.41;4996148;28;20547;-87
2020/12/05 00:53:51;;;;;;;7.82;1.77;;;;;;;15.78;44.11;98692.31;4996128;28;20031;-88
2020/12/05 00:56:21;;;;;;;5.70;1.60;;;;;;;15.82;43.63;98706.88;4996099;28;20022;-89
2020/12/05 00:58:47;;;;;;;7.68;1.65;;;;;;;16.18;42.72;98704.00;4996716;28;20018;-88
2020/12/05 01:01:12;;;;;;;6.57;1.80;;;;;;;15.70;43.93;98699.03;4996578;28;20030;-90
2020/12/05 01:03:39;;;;;;;8.00;1.55;;;;;;;15.08;45.24;98718.69;4996166;28;20388;-87
2020/12/05 01:06:05;;;;;;;5.43;1.20;;;;;;;15.87;43.28;98711.16;4995746;28;20658;-89
2020/12/05 01:08:30;;;;;;;11.85;2.92;;;;;;;15.63;43.91;98710.03;4997531;28;20109;-88
2020/12/05 01:10:56;;;;;;;4.70;1.55;;;;;;;15.70;43.71;98723.81;4996102;28;20030;-87
2020/12/05 01:13:22;;;;;;;3.05;1.20;;;;;;;15.58;43.95;98713.19;4997385;28;20033;-88
2020/12/05 01:15:47;;;;;;;1.85;1.35;;;;;;;15.11;44.77;98715.94;4979716;28;20060;-88
2020/12/05 01:18:13;;;;;;;3.55;1.20;;;;;;;15.76;43.73;98717.50;4995803;28;20137;-89
2020/12/05 01:20:38;;;;;;;2.50;1.10;;;;;;;15.44;44.45;98720.28;4995906;28;20117;-90
2020/12/05 01:23:04;;;;;;;5.45;2.22;;;;;;;15.64;43.63;98725.38;4995624;28;20030;-88
2020/12/05 01:25:29;;;;;;;4.18;1.23;;;;;;;15.51;44.10;98728.53;4996971;28;20042;-88
2020/12/05 01:27:55;;;;;;;5.28;1.42;;;;;;;15.78;43.41;98731.66;4995874;28;20038;-88
2020/12/05 01:30:20;;;;;;;4.65;1.10;;;;;;;15.76;43.39;98738.75;4995606;28;20034;-88
2020/12/05 01:32:46;;;;;;;4.38;1.20;;;;;;;15.58;43.64;98741.50;4995300;28;20061;-88
2020/12/05 01:35:12;;;;;;;3.58;1.25;;;;;;;15.62;43.63;98736.00;4996693;28;20031;-88
2020/12/05 01:37:38;;;;;;;3.63;1.00;;;;;;;15.63;43.23;98748.59;4996412;28;20198;-88
2020/12/05 01:40:04;;;;;;;4.20;0.88;;;;;;;15.95;42.81;98745.81;4995630;28;20022;-90
2020/12/05 01:42:29;;;;;;;2.85;0.93;;;;;;;16.18;42.18;98757.16;4995554;28;20036;-90
2020/12/05 01:44:55;;;;;;;9.88;2.20;;;;;;;15.70;42.95;98752.13;4995308;28;20034;-88
2020/12/05 01:47:26;;;;;;;6.22;1.30;;;;;;;15.76;42.98;98753.28;4996477;28;20396;-87
2020/12/05 01:49:52;;;;;;;6.28;1.48;;;;;;;15.39;43.09;98750.16;4996603;28;20539;-88
2020/12/05 01:52:19;;;;;;;9.18;1.50;;;;;;;16.11;41.99;98770.16;4996320;28;20110;-89
2020/12/05 01:54:45;;;;;;;6.90;1.50;;;;;;;15.81;42.76;98768.63;4994877;28;20038;-87
2020/12/05 01:57:11;;;;;;;4.63;1.05;;;;;;;15.82;42.62;98775.72;4996473;28;20030;-87
2020/12/05 01:59:37;;;;;;;4.05;1.00;;;;;;;15.71;42.92;98770.19;4995156;28;20369;-90
2020/12/05 02:02:04;;;;;;;5.78;1.40;;;;;;;15.82;42.61;98773.75;4994814;28;20031;-90
2020/12/05 02:04:36;;;;;;;5.93;1.65;;;;;;;16.09;41.34;98778.78;4978368;28;20125;-88
2020/12/05 02:07:12;;;;;;;4.10;1.15;;;;;;;16.48;40.60;98781.47;4995113;28;20034;-89
2020/12/05 02:09:49;;;;;;;5.35;1.70;;;;;;;16.37;41.28;98784.22;4978755;28;20030;-90
2020/12/05 02:12:34;;;;;;;6.07;1.42;;;;;;;16.32;41.14;98779.16;4994786;28;20034;-90
2020/12/05 02:15:12;;;;;;;4.60;1.85;;;;;;;15.92;41.98;98774.13;4994734;28;20037;-89
2020/12/05 02:17:50;;;;;;;4.97;1.50;;;;;;;15.89;42.21;98775.72;4994537;28;20106;-87
2020/12/05 02:20:16;;;;;;;3.28;1.20;;;;;;;15.74;42.25;98776.91;4995555;28;20457;-88
2020/12/05 02:22:45;;;;;;;4.18;1.15;;;;;;;15.80;42.46;98783.59;4995874;28;20110;-87
2020/12/05 02:25:12;;;;;;;5.45;0.93;;;;;;;15.27;43.33;98811.88;4994493;28;20034;-89
2020/12/05 02:27:38;;;;;;;5.65;1.30;;;;;;;15.85;42.17;98796.94;4995708;28;20077;-90
2020/12/05 02:30:05;;;;;;;4.68;1.38;;;;;;;16.14;41.52;98805.16;4994353;28;20030;-88
2020/12/05 02:32:31;;;;;;;2.10;1.00;;;;;;;15.82;41.95;98803.25;4994496;28;20057;-88
2020/12/05 02:34:56;;;;;;;4.97;1.10;;;;;;;15.57;42.88;98802.44;4994377;28;20121;-90
2020/12/05 02:37:27;;;;;;;4.72;1.40;;;;;;;15.66;42.54;98806.41;4994170;28;20153;-88
2020/12/05 02:39:55;;;;;;;3.40;1.08;;;;;;;16.46;40.78;98811.38;4995638;28;20030;-88
2020/12/05 02:42:21;;;;;;;4.50;1.10;;;;;;;16.17;41.46;98820.91;4995499;28;20088;-87
2020/12/05 02:44:48;;;;;;;7.80;1.33;;;;;;;16.28;41.44;98816.16;4994249;28;20026;-89
2020/12/05 02:47:15;;;;;;;4.13;1.90;;;;;;;16.55;40.93;98820.03;4993828;28;20392;-88
2020/12/05 02:49:40;;;;;;;6.47;1.27;;;;;;;16.47;40.92;98828.69;4994239;28;20084;-90
2020/12/05 02:52:06;;;;;;;6.82;1.85;;;;;;;16.21;41.83;98821.69;4977981;28;20424;-90
2020/12/05 02:54:32;;;;;;;6.28;1.67;;;;;;;15.96;42.21;98835.50;4994283;28;20058;-87
2020/12/05 02:57:01;;;;;;;5.47;0.85;;;;;;;15.89;42.49;98832.75;4993863;28;20073;-87
2020/12/05 02:59:28;;;;;;;4.32;1.00;;;;;;;15.67;42.99;98838.25;4994040;28;20580;-88
2020/12/05 03:01:57;;;;;;;4.53;1.40;;;;;;;16.27;41.68;98836.63;4977624;28;20034;-87
2020/12/05 03:04:23;;;;;;;4.32;0.82;;;;;;;16.50;41.09;98842.47;4993573;28;20033;-88
2020/12/05 03:06:49;;;;;;;7.30;1.40;;;;;;;16.08;41.83;98863.41;4993048;28;20027;-90
2020/12/05 03:09:15;;;;;;;6.38;0.90;;;;;;;15.78;42.70;98841.00;4994746;28;20030;-87
2020/12/05 03:11:41;;;;;;;4.30;1.10;;;;;;;15.37;43.24;98854.31;4994028;28;20141;-87
2020/12/05 03:14:07;;;;;;;4.95;1.00;;;;;;;15.88;42.40;98853.22;4993206;28;20027;-88
2020/12/05 03:16:34;;;;;;;3.53;0.98;;;;;;;15.86;42.48;98847.31;4993674;28;20469;-89
2020/12/05 03:18:59;;;;;;;3.45;1.13;;;;;;;15.94;42.40;98851.63;4977183;28;20033;-88
2020/12/05 03:21:25;;;;;;;3.65;1.17;;;;;;;15.93;42.19;98850.84;4993418;28;20019;-87
2020/12/05 03:23:51;;;;;;;6.85;1.30;;;;;;;15.50;42.85;98859.06;4994400;28;20029;-87
2020/12/05 03:26:17;;;;;;;4.50;1.10;;;;;;;15.48;42.80;98853.16;4993179;28;20393;-89
2020/12/05 03:28:43;;;;;;;2.10;0.75;;;;;;;15.41;43.14;98866.13;4993120;28;20397;-89
2020/12/05 03:31:14;;;;;;;5.03;0.93;;;;;;;15.82;42.46;98867.38;4993215;28;20037;-87
2020/12/05 03:33:41;;;;;;;4.85;1.50;;;;;;;16.00;41.56;98859.09;4993088;28;20024;-90
2020/12/05 03:36:08;;;;;;;2.63;1.05;;;;;;;15.80;42.39;98869.75;4976919;28;20085;-87
2020/12/05 03:38:33;;;;;;;6.70;1.80;;;;;;;16.12;41.39;98870.91;4992707;28;20049;-87
2020/12/05 03:40:59;;;;;;;3.85;1.33;;;;;;;15.77;42.25;98884.28;4993199;28;20413;-90
2020/12/05 03:43:24;;;;;;;3.63;1.20;;;;;;;15.83;41.84;98881.94;4993209;28;20085;-90
2020/12/05 03:45:50;;;;;;;2.45;1.05;;;;;;;15.74;42.29;98895.31;4992875;28;20030;-89
2020/12/05 03:48:15;;;;;;;2.67;0.90;;;;;;;15.74;42.10;98901.59;4992884;28;20030;-88
2020/12/05 03:50:41;;;;;;;3.75;1.13;;;;;;;16.42;40.72;98900.78;4992743;28;20027;-88
2020/12/05 03:53:07;;;;;;;4.00;1.67;;;;;;;16.15;41.08;98901.19;4992627;28;20550;-86
2020/12/05 03:55:32;;;;;;;6.47;1.38;;;;;;;15.77;42.21;98911.03;4992752;28;20118;-89
2020/12/05 03:58:01;;;;;;;5.65;0.90;;;;;;;15.92;41.99;98923.63;4994049;28;20072;-87
2020/12/05 04:00:27;;;;;;;2.25;0.85;;;;;;;15.36;43.24;98925.09;4992694;28;20018;-88
2020/12/05 04:02:53;;;;;;;2.75;0.93;;;;;;;15.78;42.60;98918.09;4993913;28;20080;-87
2020/12/05 04:05:19;;;;;;;1.90;0.82;;;;;;;15.79;42.70;98920.50;4993759;28;20030;-87
2020/12/05 04:07:45;;;;;;;2.22;0.82;;;;;;;15.81;42.17;98922.84;4993869;28;20034;-88
2020/12/05 04:10:10;;;;;;;4.55;0.98;;;;;;;15.88;42.26;98925.63;4993979;28;20023;-87
2020/12/05 04:12:36;;;;;;;2.33;0.68;;;;;;;15.64;42.18;98924.41;4992572;28;20118;-87
2020/12/05 04:15:02;;;;;;;12.40;1.63;;;;;;;15.80;42.13;98932.28;4976519;28;20358;-89
2020/12/05 04:17:27;;;;;;;4.10;1.20;;;;;;;15.60;42.42;98942.84;4994596;28;20027;-87
2020/12/05 04:19:53;;;;;;;1.67;0.60;;;;;;;15.67;42.03;98939.34;4997851;28;20034;-87
2020/12/05 04:22:19;;;;;;;2.28;0.85;;;;;;;15.55;42.34;98943.22;4997034;28;20030;-86
2020/12/05 04:24:44;;;;;;;4.72;1.20;;;;;;;15.33;42.95;98947.84;4997693;28;20065;-87
2020/12/05 04:27:10;;;;;;;2.20;0.93;;;;;;;15.74;42.33;98947.63;4997576;28;20030;-88
2020/12/05 04:29:36;;;;;;;3.50;0.90;;;;;;;15.81;41.69;98964.16;4996533;28;20031;-87
2020/12/05 04:32:01;;;;;;;5.30;1.10;;;;;;;15.51;42.64;98972.72;4997717;28;20023;-86
2020/12/05 04:34:27;;;;;;;3.90;1.08;;;;;;;15.45;42.92;98969.53;4996362;28;20030;-86
2020/12/05 04:36:53;;;;;;;1.38;0.77;;;;;;;15.90;41.77;98972.81;4996049;28;20145;-87
2020/12/05 04:39:18;;;;;;;1.92;0.60;;;;;;;15.63;42.21;98968.81;4997518;28;20362;-87
2020/12/05 04:41:44;;;;;;;1.77;0.70;;;;;;;15.65;41.82;98983.00;4997310;28;20030;-90
2020/12/05 04:44:10;;;;;;;3.50;0.93;;;;;;;15.50;42.46;98984.91;4997452;28;20046;-88
2020/12/05 04:46:36;;;;;;;2.08;1.20;;;;;;;15.54;42.40;98988.44;4997344;28;20076;-88
2020/12/05 04:49:03;;;;;;;4.57;1.80;;;;;;;15.34;42.40;98988.00;4995470;28;20026;-87
2020/12/05 04:51:37;;;;;;;4.03;0.75;;;;;;;15.28;42.60;98981.28;4979794;28;20026;-91
2020/12/05 04:54:07;;;;;;;2.45;1.08;;;;;;;15.87;41.38;98979.13;4979855;28;20484;-87
2020/12/05 04:56:39;;;;;;;2.05;0.60;;;;;;;15.84;41.59;98981.84;4996040;28;20031;-87
2020/12/05 04:59:07;;;;;;;2.50;0.70;;;;;;;15.79;41.55;98975.56;4995858;28;20034;-88
2020/12/05 05:01:38;;;;;;;0.93;0.65;;;;;;;15.47;42.58;98989.19;4996858;28;20026;-88
2020/12/05 05:04:05;;;;;;;6.13;0.80;;;;;;;15.59;41.95;98981.78;4997050;28;20477;-89
2020/12/05 05:06:31;;;;;;;3.03;0.60;;;;;;;15.67;41.47;99017.22;4979578;28;20125;-90
2020/12/05 05:08:57;;;;;;;1.25;0.52;;;;;;;15.97;40.73;99007.84;4996786;28;20501;-89
2020/12/05 05:11:26;;;;;;;2.60;0.93;;;;;;;15.91;40.92;99010.19;4996906;28;20026;-87
2020/12/05 05:13:59;;;;;;;3.50;0.80;;;;;;;15.91;41.02;99015.72;4979299;28;20497;-90
2020/12/05 05:16:27;;;;;;;2.40;0.75;;;;;;;15.87;41.28;99014.94;4979531;28;20035;-86
2020/12/05 05:18:53;;;;;;;6.70;1.30;;;;;;;15.89;40.96;99020.81;4995321;28;20022;-87
2020/12/05 05:21:39;;;;;;;3.30;1.05;;;;;;;15.52;42.06;99024.63;4995418;28;20366;-86
2020/12/05 05:24:15;;;;;;;2.00;0.80;;;;;;;15.53;41.90;99031.69;4979152;28;20034;-88
2020/12/05 05:26:59;;;;;;;2.85;0.70;;;;;;;15.63;41.72;99027.41;4995300;28;20030;-87
2020/12/05 05:29:28;;;;;;;2.33;0.70;;;;;;;15.58;42.01;99032.50;4995832;28;20037;-87
2020/12/05 05:34:39;;;;;;;1.80;0.73;;;;;;;15.59;41.65;99042.34;4996923;28;20088;-86
2020/12/05 05:37:16;;;;;;;4.07;1.17;;;;;;;15.57;41.91;99041.91;4996121;28;20047;-86
2020/12/05 05:39:44;;;;;;;5.78;0.80;;;;;;;15.43;42.14;99037.16;4996042;28;20451;-87
2020/12/05 05:42:11;;;;;;;3.03;1.17;;;;;;;15.68;41.76;99056.56;4978924;28;20038;-87
2020/12/05 05:44:37;;;;;;;1.58;0.60;;;;;;;15.48;41.90;99058.78;4996426;28;20105;-89
2020/12/05 05:47:02;;;;;;;3.30;0.80;;;;;;;15.71;41.47;99055.78;4996473;28;20105;-90
2020/12/05 05:49:33;;;;;;;5.50;0.82;;;;;;;15.66;41.33;99056.16;4996198;28;20030;-85
2020/12/05 05:52:03;;;;;;;6.07;2.08;;;;;;;15.50;41.85;99065.50;4996240;28;20034;-86
2020/12/05 05:54:31;;;;;;;3.22;0.70;;;;;;;15.77;41.27;99052.25;4995853;28;20063;-87
2020/12/05 05:57:00;;;;;;;12.85;1.77;;;;;;;15.64;41.69;99064.00;4996115;28;20061;-87
2020/12/05 05:59:32;;;;;;;1.60;0.63;;;;;;;15.59;41.47;99067.13;4994714;28;20038;-87
2020/12/05 06:01:59;;;;;;;5.88;1.23;;;;;;;15.47;42.13;99079.25;4978763;28;20022;-87
2020/12/05 06:04:33;;;;;;;3.47;0.93;;;;;;;15.27;42.26;99071.28;4995918;28;20035;-86
2020/12/05 06:07:00;;;;;;;2.45;0.63;;;;;;;15.26;42.24;99104.66;4994629;28;20080;-91
2020/12/05 06:09:29;;;;;;;2.35;0.60;;;;;;;15.02;42.90;99092.34;4995689;28;20030;-86
2020/12/05 06:11:57;;;;;;;3.75;1.08;;;;;;;15.33;42.41;99101.16;4995667;28;20477;-87
2020/12/05 06:14:23;;;;;;;3.47;0.73;;;;;;;15.34;42.31;99100.81;4995906;28;20105;-87
2020/12/05 06:16:57;;;;;;;2.13;0.63;;;;;;;15.01;42.84;99107.25;4995800;28;20477;-88
2020/12/05 06:19:24;;;;;;;2.78;1.15;;;;;;;15.39;42.25;99118.91;4995775;28;20022;-86
2020/12/05 06:21:55;;;;;;;2.92;0.80;;;;;;;14.98;43.38;99122.56;4995771;28;20027;-87
2020/12/05 06:24:55;;;;;;;7.25;1.20;;;;;;;15.42;42.21;99109.91;4994698;28;20023;-91
2020/12/05 06:27:22;;;;;;;4.93;0.88;;;;;;;15.08;43.03;99112.81;4981005;28;20049;-86
2020/12/05 06:29:48;;;;;;;1.33;0.63;;;;;;;15.13;42.88;99115.22;4994281;28;20392;-89
2020/12/05 06:32:37;;;;;;;2.47;0.70;;;;;;;15.29;42.62;99127.91;4994387;28;20015;-87
2020/12/05 06:35:04;;;;;;;2.60;0.68;;;;;;;15.08;43.15;99134.81;4995549;28;20069;-86
2020/12/05 06:37:34;;;;;;;7.10;1.17;;;;;;;15.04;43.06;99142.28;4994966;28;20523;-84
2020/12/05 06:40:04;;;;;;;3.72;1.23;;;;;;;15.16;43.22;99132.91;4995047;28;20030;-84
2020/12/05 06:42:56;;;;;;;2.50;0.80;;;;;;;14.99;43.42;99135.16;4992735;28;20495;-85
2020/12/05 06:45:28;;;;;;;2.95;0.63;;;;;;;15.40;42.62;99139.75;4990935;28;20082;-85
2020/12/05 06:48:14;;;;;;;3.67;0.75;;;;;;;15.26;42.77;99159.69;4976670;28;20030;-85
2020/12/05 06:50:45;;;;;;;1.73;0.70;;;;;;;15.72;41.64;99140.75;4994078;28;20133;-85
2020/12/05 06:53:19;;;;;;;1.85;0.60;;;;;;;15.63;42.10;99156.03;4977152;28;20030;-85
2020/12/05 06:55:46;;;;;;;4.50;1.00;;;;;;;15.66;42.11;99163.53;4974852;28;21326;-85
2020/12/05 06:58:11;;;;;;;3.30;1.13;;;;;;;15.55;42.35;99164.22;4991597;28;20044;-87
2020/12/05 07:00:41;;;;;;;2.25;0.80;;;;;;;15.52;42.22;99169.72;4975707;28;20361;-85
2020/12/05 07:03:11;;;;;;;6.80;1.10;;;;;;;15.76;41.80;99168.31;4993242;28;20085;-85
2020/12/05 07:05:39;;;;;;;5.18;1.02;;;;;;;15.54;42.24;99172.88;4990506;28;20631;-84
2020/12/05 07:08:39;;;;;;;2.92;0.80;;;;;;;15.74;41.95;99178.91;4992543;28;20034;-85
2020/12/05 07:11:07;;;;;;;5.03;0.80;;;;;;;15.79;42.03;99181.28;4976685;28;20508;-84
2020/12/05 07:13:40;;;;;;;1.05;0.52;;;;;;;15.77;41.73;99192.69;4992517;28;20022;-87
2020/12/05 07:16:16;;;;;;;8.07;1.02;;;;;;;15.78;41.98;99180.50;4975982;28;20556;-86
2020/12/05 07:18:45;;;;;;;5.18;0.90;;;;;;;15.54;42.20;99195.69;4992539;28;20105;-85
2020/12/05 07:21:11;;;;;;;5.22;1.20;;;;;;;15.62;42.41;99177.28;4993141;28;20428;-84
2020/12/05 07:23:37;;;;;;;5.80;1.35;;;;;;;15.69;42.32;99188.31;4994042;28;20072;-86
2020/12/05 07:26:04;;;;;;;3.22;0.93;;;;;;;15.77;42.11;99197.41;4992177;28;20109;-84
2020/12/05 07:28:30;;;;;;;2.40;0.80;;;;;;;15.49;42.45;99201.56;4992091;28;20064;-84
2020/12/05 07:30:56;;;;;;;3.40;1.00;;;;;;;15.35;42.74;99201.47;4980020;28;20057;-86
2020/12/05 07:33:23;;;;;;;5.10;1.00;;;;;;;15.49;42.86;99220.84;4992127;28;20077;-84
2020/12/05 07:36:03;;;;;;;3.58;0.80;;;;;;;15.60;42.28;99209.88;4991694;28;20080;-84
2020/12/05 07:38:30;;;;;;;2.88;1.15;;;;;;;15.75;41.98;99224.56;4990421;28;20058;-85
2020/12/05 07:40:56;;;;;;;7.18;1.02;;;;;;;15.87;41.70;99217.91;4991507;28;20140;-87
2020/12/05 07:43:22;;;;;;;4.63;1.17;;;;;;;15.69;41.97;99215.06;4974902;28;20488;-87
2020/12/05 07:45:50;;;;;;;4.95;0.80;;;;;;;15.71;42.29;99235.53;4992554;28;20053;-83
2020/12/05 07:48:18;;;;;;;8.38;1.10;;;;;;;16.07;41.60;99236.53;4992156;28;20034;-83
2020/12/05 07:50:44;;;;;;;4.55;1.00;;;;;;;15.58;42.52;99239.75;4989937;28;20022;-85
2020/12/05 07:53:31;;;;;;;5.95;1.95;;;;;;;15.84;42.21;99258.06;4992536;28;20032;-83
2020/12/05 07:55:58;;;;;;;3.67;1.30;;;;;;;15.93;42.10;99250.22;4985032;28;20034;-89
2020/12/05 07:58:24;;;;;;;9.13;1.90;;;;;;;16.07;41.72;99255.81;4994476;28;20026;-90
2020/12/05 08:00:54;;;;;;;7.47;1.58;;;;;;;15.76;42.57;99275.69;4994711;28;20029;-90
2020/12/05 08:03:38;;;;;;;3.33;1.27;;;;;;;15.66;42.75;99268.97;4992241;28;20030;-84
2020/12/05 08:06:53;;;;;;;5.82;1.45;;;;;;;15.76;42.70;99272.94;4977061;28;20031;-88
2020/12/05 08:09:31;;;;;;;6.47;1.58;;;;;;;15.34;43.31;99278.88;4968445;28;20039;-84
2020/12/05 08:11:57;;;;;;;7.25;1.90;;;;;;;15.96;41.94;99281.75;4992513;28;20109;-84
2020/12/05 08:14:23;;;;;;;9.50;2.17;;;;;;;15.98;41.98;99288.44;4993242;28;20030;-84
2020/12/05 08:16:53;;;;;;;8.15;1.58;;;;;;;15.48;43.10;99290.78;4993836;28;20031;-86
2020/12/05 08:19:19;;;;;;;10.10;1.98;;;;;;;15.57;43.14;99298.75;4993667;28;20031;-83
2020/12/05 08:21:45;;;;;;;10.82;2.75;;;;;;;15.51;43.21;99308.53;4976464;28;20089;-88
2020/12/05 08:24:11;;;;;;;11.55;2.70;;;;;;;15.61;42.95;99309.78;4993608;28;20444;-83
2020/12/05 08:26:38;;;;;;;8.82;2.10;;;;;;;15.57;42.98;99317.22;4976187;28;20035;-83
2020/12/05 08:29:05;;;;;;;10.25;2.10;;;;;;;15.48;43.09;99320.28;4994113;28;20040;-88
2020/12/05 08:31:31;;;;;;;12.55;1.70;;;;;;;15.55;42.94;99328.59;4976096;28;20465;-84
2020/12/05 08:33:57;;;;;;;21.13;4.18;;;;;;;15.98;41.71;99332.53;4975702;28;20073;-86
2020/12/05 08:36:32;;;;;;;10.70;2.55;;;;;;;15.95;42.03;99336.06;4992444;28;20035;-82
2020/12/05 08:39:07;;;;;;;11.13;3.20;;;;;;;15.82;42.65;99338.31;4987992;28;20114;-82
2020/12/05 08:41:45;;;;;;;18.90;3.78;;;;;;;15.85;42.89;99346.97;4975987;28;20061;-83
2020/12/05 08:44:12;;;;;;;9.95;2.72;;;;;;;16.08;42.15;99355.78;4976389;28;20876;-83
2020/12/05 08:46:38;;;;;;;12.77;4.78;;;;;;;16.19;41.71;99356.69;4976913;28;20034;-84
2020/12/05 08:49:21;;;;;;;4.05;1.60;;;;;;;16.15;41.87;99360.56;4958738;28;20449;-82
2020/12/05 08:51:51;;;;;;;9.27;2.67;;;;;;;15.94;42.03;99366.72;4976781;28;20109;-83
2020/12/05 08:54:17;;;;;;;14.00;3.28;;;;;;;15.79;42.64;99363.06;4976036;28;21019;-82
2020/12/05 08:56:43;;;;;;;9.15;1.80;;;;;;;15.73;42.90;99378.38;4976491;28;20022;-84
2020/12/05 08:59:09;;;;;;;9.43;2.50;;;;;;;16.00;42.04;99388.00;4976428;28;20026;-84
2020/12/05 09:01:43;;;;;;;7.43;1.77;;;;;;;16.00;41.95;99393.53;4976686;28;20057;-83
2020/12/05 09:04:34;;;;;;;9.80;1.98;;;;;;;15.96;42.20;99392.72;4959248;28;20030;-83
2020/12/05 09:07:14;;;;;;;8.57;2.00;;;;;;;16.48;40.69;99389.94;4979976;28;20060;-83
2020/12/05 09:09:41;;;;;;;11.65;2.30;;;;;;;16.41;40.96;99395.41;4979810;28;20026;-85
2020/12/05 09:12:12;;;;;;;7.72;2.30;;;;;;;16.18;41.19;99398.41;4979499;28;20034;-84
2020/12/05 09:14:38;;;;;;;11.68;1.90;;;;;;;16.14;41.04;99400.31;4961563;28;20515;-84
2020/12/05 09:17:31;;;;;;;9.00;2.22;;;;;;;16.18;40.65;99401.94;4977311;28;20026;-86
2020/12/05 09:20:15;;;;;;;8.13;2.28;;;;;;;16.00;41.48;99407.31;4978926;28;20547;-83
2020/12/05 09:23:01;;;;;;;4.35;1.55;;;;;;;16.18;41.13;99414.94;4979135;28;20121;-86
2020/12/05 09:25:38;;;;;;;7.10;2.30;;;;;;;16.18;40.97;99415.72;4960809;28;20038;-85
2020/12/05 09:28:10;;;;;;;6.63;2.25;;;;;;;16.24;40.72;99422.44;4962725;28;20045;-84
2020/12/05 09:30:37;;;;;;;7.05;1.80;;;;;;;16.38;40.44;99425.28;4977655;28;20030;-81
2020/12/05 09:33:15;;;;;;;8.02;1.90;;;;;;;16.12;40.85;99425.50;4979655;28;20140;-81
2020/12/05 09:35:41;;;;;;;5.90;1.77;;;;;;;15.84;41.51;99434.31;4979745;28;20029;-81
2020/12/05 09:38:07;;;;;;;5.72;1.90;;;;;;;16.12;40.93;99439.28;4980125;28;20038;-92
2020/12/05 09:40:32;;;;;;;4.70;2.72;;;;;;;15.80;41.71;99441.78;4973136;28;20058;-82
2020/12/05 09:42:59;;;;;;;5.53;1.60;;;;;;;15.45;42.53;99455.94;4969216;28;20863;-83
2020/12/05 09:45:25;;;;;;;4.22;1.58;;;;;;;15.55;42.35;99461.53;4971618;28;20035;-85
2020/12/05 09:47:51;;;;;;;5.05;1.40;;;;;;;15.59;42.45;99466.31;4971287;28;20027;-90
2020/12/05 09:50:16;;;;;;;17.50;2.83;;;;;;;15.31;43.24;99458.50;4975353;28;20041;-80
2020/12/05 09:52:42;;;;;;;6.30;3.30;;;;;;;15.27;43.19;99461.25;4973998;28;20106;-79
2020/12/05 09:55:09;;;;;;;8.73;2.78;;;;;;;15.31;43.13;99469.53;4975587;28;20028;-80
2020/12/05 09:57:34;;;;;;;3.70;1.75;;;;;;;15.65;42.03;99476.63;4990794;28;20062;-80
2020/12/05 10:00:01;;;;;;;4.72;1.70;;;;;;;15.40;42.84;99481.81;4980214;28;20058;-80
2020/12/05 10:02:26;;;;;;;6.85;2.00;;;;;;;15.42;42.96;99485.00;4991738;28;20032;-80
2020/12/05 10:04:52;;;;;;;4.55;1.08;;;;;;;15.58;42.47;99484.00;4975562;28;20018;-80
2020/12/05 10:07:17;;;;;;;12.50;2.20;;;;;;;15.63;42.08;99492.72;4971980;28;20026;-82
2020/12/05 10:09:43;;;;;;;3.08;1.45;;;;;;;15.54;42.33;99492.19;4975256;28;20029;-81
2020/12/05 10:12:09;;;;;;;5.95;2.30;;;;;;;15.64;41.87;99502.59;4988710;28;20409;-82
2020/12/05 10:14:34;;;;;;;9.50;2.65;;;;;;;15.27;42.40;99506.06;4984228;28;20062;-80
2020/12/05 10:17:00;;;;;;;3.95;1.63;;;;;;;15.52;42.26;99517.38;4974181;28;20034;-81
2020/12/05 10:19:25;;;;;;;5.30;2.47;;;;;;;15.57;42.08;99512.66;4980813;28;20023;-80
2020/12/05 10:21:51;;;;;;;7.38;2.08;;;;;;;15.53;42.25;99515.41;4978261;28;20034;-87
2020/12/05 10:24:19;;;;;;;4.82;1.48;;;;;;;15.69;41.81;99529.78;4973856;28;20033;-80
2020/12/05 10:26:56;;;;;;;16.55;2.83;;;;;;;15.63;41.86;99527.72;4971293;28;20712;-81
2020/12/05 10:29:22;;;;;;;7.93;2.13;;;;;;;15.99;41.38;99532.44;4994871;28;20101;-81
2020/12/05 10:31:51;;;;;;;9.88;2.10;;;;;;;16.07;40.98;99536.84;4984235;28;20055;-82
2020/12/05 10:34:17;;;;;;;8.00;1.73;;;;;;;16.14;40.93;99535.34;4995006;28;20029;-81
2020/12/05 10:36:43;;;;;;;8.05;1.88;;;;;;;16.06;41.12;99540.78;4983182;28;20042;-81
2020/12/05 10:39:10;;;;;;;5.25;1.70;;;;;;;16.12;41.00;99552.25;4975112;28;20101;-81
2020/12/05 10:41:36;;;;;;;9.65;2.25;;;;;;;16.30;40.42;99553.22;4973330;28;20034;-81
2020/12/05 10:44:06;;;;;;;5.40;1.70;;;;;;;15.73;41.60;99546.34;4992383;28;20489;-92
2020/12/05 10:46:32;;;;;;;11.30;2.25;;;;;;;16.17;40.99;99559.38;4986137;28;20035;-82
2020/12/05 10:48:57;;;;;;;13.32;2.10;;;;;;;16.12;41.24;99559.75;4992569;28;20491;-81
2020/12/05 10:51:23;;;;;;;9.73;2.70;;;;;;;16.31;40.57;99560.31;4988774;28;20515;-81
2020/12/05 10:53:49;;;;;;;10.90;1.92;;;;;;;16.60;40.40;99557.81;4972728;28;20019;-90
2020/12/05 10:56:14;;;;;;;11.75;2.80;;;;;;;16.41;40.57;99563.56;4973031;28;20393;-81
2020/12/05 10:58:40;;;;;;;9.50;2.20;;;;;;;16.25;41.17;99559.09;4990435;28;20117;-82
2020/12/05 11:01:05;;;;;;;6.65;2.35;;;;;;;16.39;41.19;99558.41;4989722;28;20065;-82
2020/12/05 11:03:31;;;;;;;8.85;2.25;;;;;;;16.24;41.46;99563.00;4972984;28;20105;-80
2020/12/05 11:05:56;;;;;;;9.88;3.13;;;;;;;16.20;41.80;99555.88;4973763;28;20027;-83
2020/12/05 11:08:22;;;;;;;10.73;3.03;;;;;;;16.20;41.97;99564.16;4972048;28;20037;-81
2020/12/05 11:10:48;;;;;;;13.88;4.03;;;;;;;16.56;41.39;99557.78;4973818;28;20119;-80
2020/12/05 11:13:13;;;;;;;16.15;4.15;;;;;;;16.52;41.90;99562.47;4975507;28;20030;-82
2020/12/05 11:15:39;;;;;;;10.30;2.83;;;;;;;15.04;44.13;99567.81;4992746;28;20084;-81
2020/12/05 11:18:06;;;;;;;13.85;3.20;;;;;;;15.64;43.40;99563.16;4983309;28;20484;-80
2020/12/05 11:20:31;;;;;;;11.55;2.55;;;;;;;14.98;44.57;99570.91;4993911;28;20022;-80
2020/12/05 11:22:57;;;;;;;16.33;3.15;;;;;;;15.16;44.22;99571.16;4979879;28;20034;-85
2020/12/05 11:25:22;;;;;;;16.80;3.67;;;;;;;15.61;43.17;99571.34;4975157;28;20057;-80
2020/12/05 11:27:48;;;;;;;17.35;4.80;;;;;;;15.63;43.38;99575.31;4982665;28;20030;-80
2020/12/05 11:30:13;;;;;;;8.23;2.30;;;;;;;15.43;43.52;99584.88;4994409;28;20066;-80
2020/12/05 11:32:39;;;;;;;16.73;4.13;;;;;;;15.81;43.21;99597.59;4983740;28;20109;-81
2020/12/05 11:35:05;;;;;;;13.45;2.25;;;;;;;15.66;43.69;99593.06;4993893;28;20023;-85
2020/12/05 11:37:31;;;;;;;16.85;3.45;;;;;;;15.56;43.46;99591.72;4970859;28;20058;-81
2020/12/05 11:39:57;;;;;;;16.60;2.65;;;;;;;15.54;43.38;99603.13;4974731;28;20073;-81